createdAt,value
2023-04-20T00:00:10.588Z,46.08
2023-04-20T00:01:10.587Z,45.76
2023-04-20T00:02:10.654Z,46.25
2023-04-20T00:03:10.783Z,46.25
2023-04-20T00:04:10.622Z,46.08
2023-04-20T00:05:10.678Z,46.25
2023-04-20T00:06:10.666Z,46.25
2023-04-20T00:07:10.558Z,45.92
2023-04-20T00:08:10.630Z,45.60
2023-04-20T00:09:10.571Z,45.92
2023-04-20T00:10:10.545Z,45.92
2023-04-20T00:11:10.568Z,45.92
2023-04-20T00:12:10.515Z,46.57
2023-04-20T00:13:11.552Z,46.57
2023-04-20T00:14:10.552Z,46.73
2023-04-20T00:15:10.502Z,46.57
2023-04-20T00:16:10.513Z,46.25
2023-04-20T00:17:10.670Z,45.92
2023-04-20T00:18:10.487Z,46.73
2023-04-20T00:19:10.683Z,46.73
2023-04-20T00:20:10.558Z,46.73
2023-04-20T00:21:10.487Z,46.08
2023-04-20T00:22:10.489Z,46.08
2023-04-20T00:23:10.470Z,45.92
2023-04-20T00:24:10.462Z,46.08
2023-04-20T00:25:10.480Z,46.08
2023-04-20T00:26:10.451Z,45.76
2023-04-20T00:27:10.447Z,45.92
2023-04-20T00:28:10.490Z,46.08
2023-04-20T00:29:10.424Z,46.41
2023-04-20T00:30:10.746Z,45.76
2023-04-20T00:31:10.522Z,45.60
2023-04-20T00:32:10.413Z,45.92
2023-04-20T00:33:10.408Z,45.92
2023-04-20T00:34:10.439Z,46.08
2023-04-20T00:35:10.383Z,46.41
2023-04-20T00:36:10.421Z,46.25
2023-04-20T00:37:10.434Z,46.08
2023-04-20T00:38:10.402Z,46.08
2023-04-20T00:39:10.466Z,46.08
2023-04-20T00:40:10.360Z,46.25
2023-04-20T00:41:10.422Z,46.25
2023-04-20T00:42:10.927Z,46.08
2023-04-20T00:43:10.532Z,46.25
2023-04-20T00:44:10.356Z,46.08
2023-04-20T00:45:10.369Z,45.60
2023-04-20T00:46:10.564Z,45.76
2023-04-20T00:47:10.349Z,45.60
2023-04-20T00:48:10.710Z,45.76
2023-04-20T00:49:10.327Z,45.76
2023-04-20T00:50:10.331Z,45.92
2023-04-20T00:51:10.343Z,45.60
2023-04-20T00:52:10.341Z,46.08
2023-04-20T00:53:10.286Z,46.41
2023-04-20T00:54:10.424Z,46.25
2023-04-20T00:55:10.294Z,45.44
2023-04-20T00:56:10.268Z,45.92
2023-04-20T00:57:10.327Z,45.60
2023-04-20T00:58:10.281Z,45.92
2023-04-20T00:59:10.508Z,46.08
2023-04-20T01:00:10.316Z,45.92
2023-04-20T01:01:10.352Z,46.57
2023-04-20T01:02:10.662Z,45.76
2023-04-20T01:03:10.685Z,45.60
2023-04-20T01:04:10.996Z,46.08
2023-04-20T01:05:10.320Z,45.92
2023-04-20T01:06:10.251Z,45.76
2023-04-20T01:07:10.482Z,46.08
2023-04-20T01:08:10.242Z,46.25
2023-04-20T01:09:10.474Z,45.60
2023-04-20T01:10:10.814Z,45.44
2023-04-20T01:11:10.545Z,45.60
2023-04-20T01:12:10.276Z,45.60
2023-04-20T01:13:10.353Z,45.60
2023-04-20T01:14:10.292Z,45.44
2023-04-20T01:15:10.284Z,45.76
2023-04-20T01:16:10.319Z,45.76
2023-04-20T01:17:10.219Z,45.76
2023-04-20T01:18:10.293Z,45.92
2023-04-20T01:19:10.273Z,45.92
2023-04-20T01:20:10.278Z,46.41
2023-04-20T01:21:10.210Z,46.08
2023-04-20T01:22:10.152Z,47.05
2023-04-20T01:23:10.188Z,46.89
2023-04-20T01:24:10.302Z,46.41
2023-04-20T01:25:10.134Z,45.92
2023-04-20T01:26:10.125Z,46.25
2023-04-20T01:27:10.372Z,45.92
2023-04-20T01:28:10.191Z,46.25
2023-04-20T01:29:10.129Z,45.76
2023-04-20T01:30:10.126Z,47.05
2023-04-20T01:31:10.323Z,46.57
2023-04-20T01:32:10.091Z,46.73
2023-04-20T01:33:10.264Z,45.60
2023-04-20T01:34:10.180Z,46.41
2023-04-20T01:35:10.123Z,45.44
2023-04-20T01:36:10.100Z,45.76
2023-04-20T01:37:10.105Z,45.92
2023-04-20T01:38:10.045Z,45.60
2023-04-20T01:39:10.130Z,45.60
2023-04-20T01:40:10.106Z,45.60
2023-04-20T01:41:10.055Z,46.08
2023-04-20T01:42:10.061Z,45.76
2023-04-20T01:43:10.210Z,46.25
2023-04-20T01:44:10.199Z,45.76
2023-04-20T01:45:10.079Z,46.25
2023-04-20T01:46:10.052Z,46.08
2023-04-20T01:47:10.036Z,45.92
2023-04-20T01:48:10.000Z,45.76
2023-04-20T01:49:10.250Z,45.92
2023-04-20T01:50:10.009Z,46.25
2023-04-20T01:51:10.109Z,45.92
2023-04-20T01:52:10.021Z,46.08
2023-04-20T01:53:09.965Z,45.92
2023-04-20T01:54:10.028Z,46.25
2023-04-20T01:55:09.982Z,46.25
2023-04-20T01:56:10.036Z,46.08
2023-04-20T01:57:09.964Z,46.41
2023-04-20T01:58:09.926Z,46.25
2023-04-20T01:59:09.921Z,45.76
2023-04-20T02:00:09.949Z,45.92
2023-04-20T02:01:09.992Z,46.73
2023-04-20T02:02:10.062Z,46.25
2023-04-20T02:03:10.130Z,46.08
2023-04-20T02:04:09.958Z,45.92
2023-04-20T02:05:09.919Z,45.44
2023-04-20T02:06:09.957Z,45.92
2023-04-20T02:07:09.916Z,47.21
2023-04-20T02:08:09.887Z,45.92
2023-04-20T02:09:09.879Z,45.76
2023-04-20T02:10:09.857Z,45.60
2023-04-20T02:11:09.861Z,46.08
2023-04-20T02:12:09.890Z,46.25
2023-04-20T02:13:09.885Z,46.89
2023-04-20T02:14:09.842Z,46.73
2023-04-20T02:15:09.898Z,45.60
2023-04-20T02:16:09.827Z,45.92
2023-04-20T02:17:09.912Z,45.92
2023-04-20T02:18:09.877Z,46.08
2023-04-20T02:19:09.786Z,45.92
2023-04-20T02:20:09.805Z,45.60
2023-04-20T02:21:09.798Z,45.60
2023-04-20T02:22:09.829Z,45.44
2023-04-20T02:23:09.809Z,45.28
2023-04-20T02:24:09.812Z,45.28
2023-04-20T02:25:09.765Z,45.76
2023-04-20T02:26:09.773Z,45.92
2023-04-20T02:27:09.811Z,45.76
2023-04-20T02:28:09.749Z,46.25
2023-04-20T02:29:09.769Z,47.05
2023-04-20T02:30:09.745Z,46.41
2023-04-20T02:31:09.836Z,46.08
2023-04-20T02:32:09.713Z,46.08
2023-04-20T02:33:09.732Z,45.92
2023-04-20T02:34:09.770Z,45.92
2023-04-20T02:35:09.778Z,46.08
2023-04-20T02:36:09.721Z,45.92
2023-04-20T02:37:09.684Z,46.08
2023-04-20T02:38:09.700Z,45.60
2023-04-20T02:39:09.714Z,45.44
2023-04-20T02:40:09.716Z,45.76
2023-04-20T02:41:09.678Z,46.57
2023-04-20T02:42:09.656Z,46.25
2023-04-20T02:43:09.663Z,46.57
2023-04-20T02:44:09.685Z,46.41
2023-04-20T02:45:09.751Z,46.08
2023-04-20T02:46:09.719Z,47.21
2023-04-20T02:47:09.623Z,46.89
2023-04-20T02:48:09.762Z,47.21
2023-04-20T02:49:09.681Z,47.37
2023-04-20T02:50:09.697Z,46.89
2023-04-20T02:51:09.607Z,46.57
2023-04-20T02:52:09.614Z,46.41
2023-04-20T02:53:09.648Z,46.73
2023-04-20T02:54:09.635Z,46.25
2023-04-20T02:55:09.630Z,46.25
2023-04-20T02:56:09.649Z,46.57
2023-04-20T02:57:09.609Z,46.25
2023-04-20T02:58:09.585Z,46.41
2023-04-20T02:59:09.593Z,46.73
2023-04-20T03:00:09.585Z,46.25
2023-04-20T03:01:09.619Z,47.21
2023-04-20T03:02:09.653Z,46.41
2023-04-20T03:03:09.674Z,47.05
2023-04-20T03:04:09.599Z,47.05
2023-04-20T03:05:09.584Z,46.89
2023-04-20T03:06:09.573Z,46.25
2023-04-20T03:07:09.558Z,45.60
2023-04-20T03:08:09.519Z,46.57
2023-04-20T03:09:09.521Z,45.92
2023-04-20T03:10:09.515Z,46.41
2023-04-20T03:11:09.509Z,46.25
2023-04-20T03:12:09.563Z,46.73
2023-04-20T03:13:09.523Z,46.08
2023-04-20T03:14:09.520Z,46.25
2023-04-20T03:15:09.517Z,46.41
2023-04-20T03:16:09.531Z,46.73
2023-04-20T03:17:09.511Z,47.21
2023-04-20T03:18:09.488Z,46.89
2023-04-20T03:19:09.479Z,47.05
2023-04-20T03:20:09.488Z,46.73
2023-04-20T03:21:09.453Z,47.86
2023-04-20T03:22:09.513Z,47.53
2023-04-20T03:23:09.448Z,47.53
2023-04-20T03:24:09.450Z,47.53
2023-04-20T03:25:09.452Z,48.66
2023-04-20T03:26:09.438Z,47.86
2023-04-20T03:27:09.431Z,48.18
2023-04-20T03:28:09.527Z,47.05
2023-04-20T03:29:09.440Z,47.05
2023-04-20T03:30:09.420Z,47.21
2023-04-20T03:31:09.428Z,47.21
2023-04-20T03:32:09.518Z,47.21
2023-04-20T03:33:09.474Z,47.21
2023-04-20T03:34:09.408Z,48.02
2023-04-20T03:35:09.449Z,48.18
2023-04-20T03:36:09.365Z,48.34
2023-04-20T03:37:09.374Z,48.02
2023-04-20T03:38:09.378Z,47.53
2023-04-20T03:39:09.392Z,48.66
2023-04-20T03:40:09.328Z,48.02
2023-04-20T03:41:09.354Z,47.70
2023-04-20T03:42:09.335Z,47.37
2023-04-20T03:43:09.317Z,47.53
2023-04-20T03:44:09.388Z,48.34
2023-04-20T03:45:09.307Z,47.86
2023-04-20T03:46:09.374Z,48.18
2023-04-20T03:47:09.321Z,48.66
2023-04-20T03:48:09.293Z,49.95
2023-04-20T03:49:09.341Z,47.21
2023-04-20T03:50:09.284Z,48.50
2023-04-20T03:51:09.308Z,49.15
2023-04-20T03:52:09.291Z,49.79
2023-04-20T03:53:09.257Z,48.98
2023-04-20T03:54:09.266Z,47.86
2023-04-20T03:55:09.282Z,47.70
2023-04-20T03:56:09.232Z,48.18
2023-04-20T03:57:09.278Z,48.82
2023-04-20T03:58:09.248Z,48.18
2023-04-20T03:59:09.244Z,49.47
2023-04-20T04:00:09.212Z,48.82
2023-04-20T04:01:09.284Z,48.50
2023-04-20T04:02:09.302Z,49.31
2023-04-20T04:03:09.338Z,48.18
2023-04-20T04:04:09.560Z,48.02
2023-04-20T04:05:09.209Z,47.86
2023-04-20T04:06:09.238Z,48.34
2023-04-20T04:07:09.213Z,48.18
2023-04-20T04:08:09.180Z,48.50
2023-04-20T04:09:09.226Z,48.34
2023-04-20T04:10:09.152Z,49.79
2023-04-20T04:11:09.139Z,48.66
2023-04-20T04:12:09.219Z,50.11
2023-04-20T04:13:09.161Z,48.34
2023-04-20T04:14:09.140Z,47.70
2023-04-20T04:15:09.150Z,48.50
2023-04-20T04:16:09.173Z,48.66
2023-04-20T04:17:09.195Z,50.11
2023-04-20T04:18:09.243Z,49.15
2023-04-20T04:19:09.115Z,49.95
2023-04-20T04:20:09.095Z,48.66
2023-04-20T04:21:09.120Z,47.86
2023-04-20T04:22:09.106Z,49.15
2023-04-20T04:23:09.076Z,49.47
2023-04-20T04:24:09.054Z,49.31
2023-04-20T04:25:09.071Z,49.15
2023-04-20T04:26:09.033Z,48.98
2023-04-20T04:27:09.048Z,47.70
2023-04-20T04:28:09.130Z,47.86
2023-04-20T04:29:09.026Z,47.86
2023-04-20T04:30:09.060Z,49.31
2023-04-20T04:31:09.032Z,48.50
2023-04-20T04:32:09.008Z,49.15
2023-04-20T04:33:09.045Z,49.63
2023-04-20T04:34:09.055Z,53.17
2023-04-20T04:35:09.032Z,50.27
2023-04-20T04:36:09.025Z,48.66
2023-04-20T04:37:08.987Z,48.98
2023-04-20T04:38:09.002Z,50.92
2023-04-20T04:39:08.948Z,50.92
2023-04-20T04:40:08.966Z,48.98
2023-04-20T04:41:08.972Z,49.95
2023-04-20T04:42:08.963Z,51.24
2023-04-20T04:43:08.982Z,49.31
2023-04-20T04:44:08.976Z,49.63
2023-04-20T04:45:08.976Z,48.66
2023-04-20T04:46:08.945Z,49.95
2023-04-20T04:47:08.921Z,51.88
2023-04-20T04:48:09.179Z,49.47
2023-04-20T04:49:08.919Z,50.76
2023-04-20T04:50:08.937Z,50.76
2023-04-20T04:51:08.885Z,50.11
2023-04-20T04:52:08.973Z,48.98
2023-04-20T04:53:08.907Z,48.98
2023-04-20T04:54:08.850Z,49.47
2023-04-20T04:55:08.921Z,52.53
2023-04-20T04:56:08.865Z,48.98
2023-04-20T04:57:08.855Z,50.60
2023-04-20T04:58:08.879Z,50.76
2023-04-20T04:59:08.846Z,52.53
2023-04-20T05:00:08.892Z,53.17
2023-04-20T05:01:08.896Z,49.31
2023-04-20T05:02:08.943Z,53.17
2023-04-20T05:03:08.884Z,55.59
2023-04-20T05:04:08.998Z,53.98
2023-04-20T05:05:10.022Z,52.21
2023-04-20T05:06:09.846Z,51.40
2023-04-20T05:07:08.839Z,51.40
2023-04-20T05:08:08.796Z,50.76
2023-04-20T05:09:08.795Z,50.27
2023-04-20T05:10:08.782Z,50.27
2023-04-20T05:11:08.804Z,51.40
2023-04-20T05:12:08.843Z,50.43
2023-04-20T05:13:08.798Z,49.63
2023-04-20T05:14:08.752Z,51.24
2023-04-20T05:15:08.766Z,49.47
2023-04-20T05:16:08.860Z,50.92
2023-04-20T05:17:08.734Z,50.43
2023-04-20T05:18:08.797Z,50.76
2023-04-20T05:19:09.744Z,49.15
2023-04-20T05:20:08.711Z,50.92
2023-04-20T05:21:08.772Z,51.40
2023-04-20T05:22:08.736Z,50.11
2023-04-20T05:23:08.704Z,49.95
2023-04-20T05:24:08.750Z,49.63
2023-04-20T05:25:08.684Z,51.40
2023-04-20T05:26:08.664Z,50.43
2023-04-20T05:27:08.692Z,50.76
2023-04-20T05:28:08.704Z,51.08
2023-04-20T05:29:08.647Z,49.95
2023-04-20T05:30:19.563Z,50.27
2023-04-20T05:31:10.637Z,50.43
2023-04-20T05:32:08.863Z,50.60
2023-04-20T05:33:08.720Z,50.60
2023-04-20T05:34:08.654Z,49.79
2023-04-20T05:35:08.645Z,51.08
2023-04-20T05:36:08.625Z,53.50
2023-04-20T05:37:08.607Z,50.76
2023-04-20T05:38:08.620Z,51.40
2023-04-20T05:39:08.628Z,50.92
2023-04-20T05:40:08.639Z,50.11
2023-04-20T05:41:08.579Z,50.76
2023-04-20T05:42:09.447Z,50.76
2023-04-20T05:43:08.588Z,48.98
2023-04-20T05:44:08.552Z,48.50
2023-04-20T05:45:08.580Z,51.88
2023-04-20T05:46:08.570Z,50.60
2023-04-20T05:47:08.578Z,53.50
2023-04-20T05:48:08.591Z,50.43
2023-04-20T05:49:08.526Z,48.50
2023-04-20T05:50:08.581Z,51.40
2023-04-20T05:51:08.520Z,50.11
2023-04-20T05:52:08.563Z,49.63
2023-04-20T05:53:08.505Z,50.92
2023-04-20T05:54:08.520Z,50.11
2023-04-20T05:55:08.538Z,48.18
2023-04-20T05:56:08.482Z,47.05
2023-04-20T05:57:08.492Z,49.47
2023-04-20T05:58:08.523Z,51.88
2023-04-20T05:59:08.493Z,50.27
2023-04-20T06:00:08.452Z,50.92
2023-04-20T06:01:08.515Z,50.60
2023-04-20T06:02:08.669Z,49.63
2023-04-20T06:03:08.579Z,50.11
2023-04-20T06:04:08.647Z,50.11
2023-04-20T06:05:08.687Z,51.40
2023-04-20T06:06:08.475Z,51.40
2023-04-20T06:07:08.457Z,50.92
2023-04-20T06:08:08.398Z,50.43
2023-04-20T06:09:08.401Z,51.40
2023-04-20T06:10:08.494Z,52.53
2023-04-20T06:11:08.410Z,50.11
2023-04-20T06:12:08.452Z,49.15
2023-04-20T06:13:08.396Z,51.88
2023-04-20T06:14:08.379Z,50.43
2023-04-20T06:15:08.455Z,50.43
2023-04-20T06:16:08.449Z,48.98
2023-04-20T06:17:11.084Z,49.31
2023-04-20T06:18:25.098Z,48.98
2023-04-20T06:19:10.306Z,51.72
2023-04-20T06:20:12.492Z,52.21
2023-04-20T06:21:12.182Z,51.40
2023-04-20T06:22:11.160Z,51.56
2023-04-20T06:23:13.520Z,52.21
2023-04-20T06:24:10.643Z,50.43
2023-04-20T06:25:09.074Z,49.79
2023-04-20T06:26:14.542Z,49.79
2023-04-20T06:27:09.618Z,49.95
2023-04-20T06:28:33.088Z,49.63
2023-04-20T06:29:28.090Z,49.95
2023-04-20T06:30:10.863Z,52.37
2023-04-20T06:31:15.847Z,52.37
2023-04-20T06:32:25.146Z,51.56
2023-04-20T06:33:12.271Z,49.47
2023-04-20T06:34:14.274Z,50.27
2023-04-20T06:35:08.282Z,50.11
2023-04-20T06:36:08.251Z,49.47
2023-04-20T06:37:08.239Z,50.76
2023-04-20T06:38:08.241Z,49.95
2023-04-20T06:39:08.220Z,48.34
2023-04-20T06:40:08.532Z,50.92
2023-04-20T06:41:08.187Z,51.88
2023-04-20T06:42:08.201Z,50.92
2023-04-20T06:43:08.213Z,50.76
2023-04-20T06:44:08.182Z,51.72
2023-04-20T06:45:08.208Z,49.79
2023-04-20T06:46:08.269Z,50.43
2023-04-20T06:47:08.224Z,48.98
2023-04-20T06:48:14.412Z,48.50
2023-04-20T06:49:10.191Z,49.15
2023-04-20T06:50:08.175Z,52.05
2023-04-20T06:51:08.147Z,49.63
2023-04-20T06:52:09.119Z,48.50
2023-04-20T06:53:08.114Z,49.31
2023-04-20T06:54:08.182Z,48.82
2023-04-20T06:55:08.121Z,49.95
2023-04-20T06:56:08.106Z,51.08
2023-04-20T06:57:08.086Z,50.11
2023-04-20T06:58:08.136Z,48.50
2023-04-20T06:59:08.100Z,49.79
2023-04-20T07:00:08.384Z,49.31
2023-04-20T07:01:08.185Z,52.37
2023-04-20T07:02:08.172Z,54.62
2023-04-20T07:03:08.223Z,50.92
2023-04-20T07:04:08.098Z,51.24
2023-04-20T07:05:08.212Z,48.50
2023-04-20T07:06:08.107Z,48.18
2023-04-20T07:07:09.044Z,49.31
2023-04-20T07:08:08.031Z,48.98
2023-04-20T07:09:08.048Z,49.79
2023-04-20T07:10:08.020Z,49.63
2023-04-20T07:11:08.034Z,50.11
2023-04-20T07:12:08.023Z,49.95
2023-04-20T07:13:08.007Z,52.05
2023-04-20T07:14:07.986Z,51.08
2023-04-20T07:15:08.027Z,50.60
2023-04-20T07:16:08.178Z,49.63
2023-04-20T07:17:07.971Z,50.27
2023-04-20T07:18:08.017Z,50.76
2023-04-20T07:19:07.959Z,53.33
2023-04-20T07:20:07.994Z,50.92
2023-04-20T07:21:07.960Z,50.43
2023-04-20T07:22:07.960Z,51.24
2023-04-20T07:23:07.958Z,52.05
2023-04-20T07:24:07.952Z,50.27
2023-04-20T07:25:09.033Z,50.76
2023-04-20T07:26:07.926Z,49.15
2023-04-20T07:27:07.900Z,51.08
2023-04-20T07:28:07.895Z,51.40
2023-04-20T07:29:07.904Z,50.43
2023-04-20T07:30:07.897Z,49.79
2023-04-20T07:31:08.911Z,48.34
2023-04-20T07:32:08.014Z,51.72
2023-04-20T07:33:07.932Z,51.72
2023-04-20T07:34:07.864Z,48.98
2023-04-20T07:35:07.904Z,49.95
2023-04-20T07:36:07.835Z,51.40
2023-04-20T07:37:07.888Z,51.08
2023-04-20T07:38:07.844Z,50.43
2023-04-20T07:39:07.846Z,50.27
2023-04-20T07:40:07.825Z,49.63
2023-04-20T07:41:07.806Z,50.11
2023-04-20T07:42:07.836Z,48.18
2023-04-20T07:43:07.829Z,50.60
2023-04-20T07:44:07.796Z,49.15
2023-04-20T07:45:07.900Z,48.50
2023-04-20T07:46:07.888Z,48.82
2023-04-20T07:47:07.799Z,50.60
2023-04-20T07:48:07.783Z,51.72
2023-04-20T07:49:07.814Z,49.63
2023-04-20T07:50:07.793Z,49.15
2023-04-20T07:51:07.761Z,48.82
2023-04-20T07:52:16.297Z,49.79
2023-04-20T07:53:09.758Z,49.31
2023-04-20T07:54:07.753Z,50.11
2023-04-20T07:55:07.741Z,52.05
2023-04-20T07:56:07.735Z,50.92
2023-04-20T07:57:07.763Z,50.92
2023-04-20T07:58:07.738Z,52.37
2023-04-20T07:59:07.744Z,48.50
2023-04-20T08:00:07.713Z,48.98
2023-04-20T08:01:07.701Z,49.79
2023-04-20T08:02:07.820Z,48.66
2023-04-20T08:03:07.857Z,48.82
2023-04-20T08:04:07.982Z,48.66
2023-04-20T08:05:07.958Z,50.11
2023-04-20T08:06:07.768Z,50.43
2023-04-20T08:07:07.675Z,50.76
2023-04-20T08:08:07.670Z,48.98
2023-04-20T08:09:07.695Z,48.98
2023-04-20T08:10:07.692Z,48.66
2023-04-20T08:11:07.655Z,48.50
2023-04-20T08:12:07.658Z,48.34
2023-04-20T08:13:08.178Z,48.18
2023-04-20T08:14:07.660Z,49.31
2023-04-20T08:15:07.610Z,50.92
2023-04-20T08:16:07.741Z,50.76
2023-04-20T08:17:07.595Z,50.43
2023-04-20T08:18:07.685Z,49.95
2023-04-20T08:19:07.599Z,50.92
2023-04-20T08:20:07.601Z,48.98
2023-04-20T08:21:07.574Z,49.15
2023-04-20T08:22:07.575Z,49.95
2023-04-20T08:23:07.675Z,51.24
2023-04-20T08:24:07.652Z,50.11
2023-04-20T08:25:07.581Z,49.95
2023-04-20T08:26:07.523Z,48.98
2023-04-20T08:27:07.568Z,52.69
2023-04-20T08:28:11.944Z,51.24
2023-04-20T08:29:09.544Z,53.01
2023-04-20T08:30:07.532Z,50.27
2023-04-20T08:31:07.582Z,49.47
2023-04-20T08:32:07.750Z,49.63
2023-04-20T08:33:07.549Z,50.43
2023-04-20T08:34:07.506Z,49.95
2023-04-20T08:35:07.583Z,49.47
2023-04-20T08:36:07.759Z,50.11
2023-04-20T08:37:07.508Z,48.98
2023-04-20T08:38:07.481Z,48.98
2023-04-20T08:39:07.464Z,48.98
2023-04-20T08:40:07.486Z,49.15
2023-04-20T08:41:07.461Z,48.66
2023-04-20T08:42:07.500Z,51.56
2023-04-20T08:43:07.445Z,52.37
2023-04-20T08:44:07.420Z,52.37
2023-04-20T08:45:07.417Z,52.05
2023-04-20T08:46:07.458Z,50.60
2023-04-20T08:47:07.797Z,52.69
2023-04-20T08:48:07.482Z,51.88
2023-04-20T08:49:07.427Z,52.53
2023-04-20T08:50:07.421Z,53.50
2023-04-20T08:51:07.414Z,50.60
2023-04-20T08:52:07.748Z,52.69
2023-04-20T08:53:08.136Z,52.21
2023-04-20T08:54:08.352Z,51.24
2023-04-20T08:55:07.377Z,50.60
2023-04-20T08:56:08.540Z,51.72
2023-04-20T08:57:09.214Z,50.92
2023-04-20T08:58:10.956Z,52.69
2023-04-20T08:59:07.371Z,53.33
2023-04-20T09:00:07.347Z,50.43
2023-04-20T09:01:07.359Z,51.40
2023-04-20T09:02:07.422Z,54.46
2023-04-20T09:03:07.439Z,58.01
2023-04-20T09:04:07.487Z,56.24
2023-04-20T09:05:07.348Z,49.95
2023-04-20T09:06:07.273Z,50.60
2023-04-20T09:07:07.270Z,52.21
2023-04-20T09:08:07.314Z,50.76
2023-04-20T09:09:07.276Z,50.92
2023-04-20T09:10:07.290Z,50.60
2023-04-20T09:11:07.253Z,50.11
2023-04-20T09:12:07.551Z,50.76
2023-04-20T09:13:07.253Z,49.79
2023-04-20T09:14:07.263Z,50.60
2023-04-20T09:15:07.228Z,50.11
2023-04-20T09:16:07.256Z,50.92
2023-04-20T09:17:07.221Z,51.56
2023-04-20T09:18:07.292Z,53.50
2023-04-20T09:19:08.853Z,52.69
2023-04-20T09:20:07.242Z,52.69
2023-04-20T09:21:07.178Z,50.11
2023-04-20T09:22:07.207Z,50.27
2023-04-20T09:23:07.200Z,52.21
2023-04-20T09:24:07.188Z,51.40
2023-04-20T09:25:07.252Z,52.53
2023-04-20T09:26:07.292Z,51.72
2023-04-20T09:27:07.161Z,50.92
2023-04-20T09:28:07.163Z,50.11
2023-04-20T09:29:07.168Z,49.79
2023-04-20T09:30:07.201Z,50.76
2023-04-20T09:31:07.157Z,52.85
2023-04-20T09:32:07.244Z,55.11
2023-04-20T09:33:07.234Z,52.53
2023-04-20T09:34:07.361Z,49.31
2023-04-20T09:35:07.297Z,49.15
2023-04-20T09:36:07.112Z,51.24
2023-04-20T09:37:07.385Z,53.98
2023-04-20T09:38:08.110Z,51.88
2023-04-20T09:39:07.132Z,50.92
2023-04-20T09:40:07.129Z,49.63
2023-04-20T09:41:07.083Z,53.17
2023-04-20T09:42:07.124Z,50.60
2023-04-20T09:43:07.081Z,49.47
2023-04-20T09:44:07.062Z,51.88
2023-04-20T09:45:07.222Z,50.27
2023-04-20T09:46:07.088Z,51.08
2023-04-20T09:47:07.079Z,52.21
2023-04-20T09:48:07.084Z,50.92
2023-04-20T09:49:07.051Z,51.24
2023-04-20T09:50:19.498Z,51.08
2023-04-20T09:51:09.141Z,51.24
2023-04-20T09:52:07.087Z,52.21
2023-04-20T09:53:07.038Z,49.95
2023-04-20T09:54:07.034Z,51.56
2023-04-20T09:55:07.051Z,51.24
2023-04-20T09:56:07.016Z,51.08
2023-04-20T09:57:07.021Z,50.11
2023-04-20T09:58:07.134Z,50.11
2023-04-20T09:59:07.006Z,49.79
2023-04-20T10:00:07.101Z,49.79
2023-04-20T10:01:07.017Z,53.17
2023-04-20T10:02:07.037Z,51.24
2023-04-20T10:03:07.065Z,53.82
2023-04-20T10:04:07.264Z,53.01
2023-04-20T10:05:07.014Z,49.15
2023-04-20T10:06:06.986Z,49.95
2023-04-20T10:07:06.976Z,50.11
2023-04-20T10:08:06.946Z,51.56
2023-04-20T10:09:06.994Z,52.53
2023-04-20T10:10:06.946Z,52.05
2023-04-20T10:11:06.944Z,52.05
2023-04-20T10:12:06.936Z,52.05
2023-04-20T10:13:06.923Z,49.95
2023-04-20T10:14:06.930Z,50.92
2023-04-20T10:15:06.977Z,51.56
2023-04-20T10:16:06.939Z,49.47
2023-04-20T10:17:07.211Z,50.27
2023-04-20T10:18:06.951Z,49.47
2023-04-20T10:19:09.031Z,50.76
2023-04-20T10:20:07.897Z,52.53
2023-04-20T10:21:06.861Z,52.85
2023-04-20T10:22:06.889Z,51.88
2023-04-20T10:23:06.876Z,50.60
2023-04-20T10:24:06.869Z,51.56
2023-04-20T10:25:06.930Z,50.43
2023-04-20T10:26:06.838Z,49.79
2023-04-20T10:27:06.856Z,50.43
2023-04-20T10:28:06.881Z,50.43
2023-04-20T10:29:06.828Z,49.63
2023-04-20T10:30:06.869Z,53.01
2023-04-20T10:31:06.873Z,50.60
2023-04-20T10:32:06.828Z,49.79
2023-04-20T10:33:06.875Z,50.92
2023-04-20T10:34:06.819Z,52.21
2023-04-20T10:35:06.840Z,51.40
2023-04-20T10:36:06.799Z,51.88
2023-04-20T10:37:06.811Z,50.76
2023-04-20T10:38:06.798Z,52.85
2023-04-20T10:39:06.797Z,50.43
2023-04-20T10:40:07.842Z,51.40
2023-04-20T10:41:07.816Z,49.79
2023-04-20T10:42:06.756Z,49.47
2023-04-20T10:43:06.745Z,51.72
2023-04-20T10:44:06.750Z,52.37
2023-04-20T10:45:06.794Z,49.15
2023-04-20T10:46:06.782Z,51.24
2023-04-20T10:47:06.777Z,49.47
2023-04-20T10:48:06.761Z,49.47
2023-04-20T10:49:06.735Z,50.27
2023-04-20T10:50:06.713Z,53.01
2023-04-20T10:51:06.728Z,50.11
2023-04-20T10:52:06.740Z,50.43
2023-04-20T10:53:06.707Z,49.79
2023-04-20T10:54:06.732Z,49.79
2023-04-20T10:55:06.707Z,51.88
2023-04-20T10:56:06.710Z,52.21
2023-04-20T10:57:06.693Z,52.21
2023-04-20T10:58:06.714Z,49.47
2023-04-20T10:59:06.687Z,51.24
2023-04-20T11:00:06.676Z,49.63
2023-04-20T11:01:06.707Z,52.21
2023-04-20T11:02:06.746Z,52.21
2023-04-20T11:03:06.889Z,54.95
2023-04-20T11:04:06.641Z,50.43
2023-04-20T11:05:06.702Z,51.56
2023-04-20T11:06:06.658Z,51.40
2023-04-20T11:07:06.654Z,51.24
2023-04-20T11:08:06.689Z,51.08
2023-04-20T11:09:06.659Z,50.76
2023-04-20T11:10:06.636Z,50.27
2023-04-20T11:11:06.619Z,50.11
2023-04-20T11:12:06.720Z,49.15
2023-04-20T11:13:06.639Z,48.98
2023-04-20T11:14:06.610Z,52.05
2023-04-20T11:15:06.596Z,50.92
2023-04-20T11:16:06.700Z,51.08
2023-04-20T11:17:06.663Z,50.76
2023-04-20T11:18:06.722Z,52.37
2023-04-20T11:19:06.600Z,52.53
2023-04-20T11:20:06.624Z,49.95
2023-04-20T11:21:06.588Z,50.27
2023-04-20T11:22:06.652Z,51.24
2023-04-20T11:23:06.673Z,49.79
2023-04-20T11:24:06.652Z,49.31
2023-04-20T11:25:06.609Z,50.43
2023-04-20T11:26:06.565Z,53.50
2023-04-20T11:27:06.551Z,51.88
2023-04-20T11:28:06.538Z,51.72
2023-04-20T11:29:06.567Z,51.24
2023-04-20T11:30:06.599Z,51.40
2023-04-20T11:31:06.626Z,49.63
2023-04-20T11:32:06.718Z,50.43
2023-04-20T11:33:06.655Z,51.40
2023-04-20T11:34:07.198Z,51.08
2023-04-20T11:35:07.756Z,51.72
2023-04-20T11:36:06.568Z,48.82
2023-04-20T11:37:06.632Z,48.34
2023-04-20T11:38:06.518Z,49.47
2023-04-20T11:39:06.490Z,50.11
2023-04-20T11:40:07.309Z,49.47
2023-04-20T11:41:06.528Z,48.66
2023-04-20T11:42:06.528Z,48.82
2023-04-20T11:43:06.486Z,50.11
2023-04-20T11:44:06.478Z,51.40
2023-04-20T11:45:06.474Z,51.56
2023-04-20T11:46:06.556Z,52.05
2023-04-20T11:47:06.606Z,51.40
2023-04-20T11:48:06.587Z,51.40
2023-04-20T11:49:06.463Z,50.92
2023-04-20T11:50:06.439Z,51.56
2023-04-20T11:51:06.450Z,51.88
2023-04-20T11:52:06.528Z,49.63
2023-04-20T11:53:06.468Z,48.82
2023-04-20T11:54:06.413Z,49.63
2023-04-20T11:55:06.416Z,49.95
2023-04-20T11:56:06.423Z,50.76
2023-04-20T11:57:06.441Z,49.15
2023-04-20T11:58:06.405Z,48.82
2023-04-20T11:59:06.394Z,49.79
2023-04-20T12:00:06.383Z,53.98
2023-04-20T12:01:06.399Z,55.75
2023-04-20T12:02:06.452Z,51.72
2023-04-20T12:03:06.601Z,51.72
2023-04-20T12:04:06.637Z,51.24
2023-04-20T12:05:06.559Z,50.92
2023-04-20T12:06:06.396Z,51.40
2023-04-20T12:07:06.360Z,52.37
2023-04-20T12:08:06.397Z,49.63
2023-04-20T12:09:06.413Z,49.31
2023-04-20T12:10:06.370Z,52.05
2023-04-20T12:11:06.321Z,51.24
2023-04-20T12:12:06.323Z,49.63
2023-04-20T12:13:06.380Z,48.82
2023-04-20T12:14:06.406Z,49.79
2023-04-20T12:15:06.304Z,50.27
2023-04-20T12:16:06.476Z,50.60
2023-04-20T12:17:06.318Z,48.50
2023-04-20T12:18:06.352Z,48.34
2023-04-20T12:19:06.317Z,50.92
2023-04-20T12:20:06.339Z,49.15
2023-04-20T12:21:07.294Z,50.43
2023-04-20T12:22:06.275Z,49.47
2023-04-20T12:23:06.306Z,49.95
2023-04-20T12:24:06.306Z,49.95
2023-04-20T12:25:06.287Z,49.95
2023-04-20T12:26:06.381Z,49.63
2023-04-20T12:27:06.269Z,49.95
2023-04-20T12:28:06.237Z,50.43
2023-04-20T12:29:06.243Z,49.31
2023-04-20T12:30:06.249Z,50.11
2023-04-20T12:31:06.257Z,49.15
2023-04-20T12:32:06.225Z,48.02
2023-04-20T12:33:06.265Z,48.34
2023-04-20T12:34:06.212Z,49.15
2023-04-20T12:35:06.268Z,49.31
2023-04-20T12:36:06.260Z,50.76
2023-04-20T12:37:06.301Z,48.34
2023-04-20T12:38:06.226Z,50.11
2023-04-20T12:39:06.180Z,50.76
2023-04-20T12:40:06.193Z,49.63
2023-04-20T12:41:06.167Z,50.11
2023-04-20T12:42:06.198Z,48.98
2023-04-20T12:43:06.162Z,49.95
2023-04-20T12:44:15.395Z,50.43
2023-04-20T12:45:07.159Z,51.24
2023-04-20T12:46:06.245Z,49.79
2023-04-20T12:47:06.371Z,59.94
2023-04-20T12:48:06.261Z,72.99
2023-04-20T12:49:06.157Z,83.63
2023-04-20T12:50:06.121Z,74.60
2023-04-20T12:51:06.145Z,79.44
2023-04-20T12:52:08.149Z,67.51